createdAt,value
2022-08-26T00:01:56.955Z,23.40
2022-08-26T00:04:25.859Z,23.70
2022-08-26T00:06:55.676Z,23.40
2022-08-26T00:09:25.112Z,23.30
2022-08-26T00:11:53.968Z,23.30
2022-08-26T00:14:27.043Z,23.40
2022-08-26T00:16:56.929Z,23.40
2022-08-26T00:19:24.749Z,22.50
2022-08-26T00:21:51.778Z,23.00
2022-08-26T00:24:21.732Z,23.30
2022-08-26T00:26:50.106Z,23.30
2022-08-26T00:29:19.084Z,23.20
2022-08-26T00:31:48.394Z,24.80
2022-08-26T00:34:16.801Z,23.40
2022-08-26T00:36:47.888Z,23.20
2022-08-26T00:39:19.931Z,22.60
2022-08-26T00:41:47.912Z,23.20
2022-08-26T00:44:15.016Z,22.80
2022-08-26T00:46:47.215Z,23.20
2022-08-26T00:49:21.649Z,23.10
2022-08-26T00:51:55.874Z,23.10
2022-08-26T00:54:27.507Z,23.20
2022-08-26T00:57:08.750Z,23.10
2022-08-26T01:00:06.776Z,23.30
2022-08-26T01:02:34.142Z,22.90
2022-08-26T01:05:04.669Z,23.00
2022-08-26T01:07:33.269Z,23.10
2022-08-26T01:10:07.965Z,23.60
2022-08-26T01:12:41.738Z,22.80
2022-08-26T01:15:19.243Z,24.10
2022-08-26T01:17:47.361Z,22.90
2022-08-26T01:20:49.957Z,22.90
2022-08-26T01:23:17.421Z,20.80
2022-08-26T01:25:56.846Z,23.90
2022-08-26T01:28:29.792Z,22.90
2022-08-26T01:30:58.032Z,22.80
2022-08-26T01:33:55.713Z,22.70
2022-08-26T01:36:24.930Z,22.80
2022-08-26T01:38:52.829Z,22.60
2022-08-26T01:41:27.247Z,25.00
2022-08-26T01:43:57.896Z,23.80
2022-08-26T01:46:27.031Z,22.90
2022-08-26T01:48:57.386Z,23.30
2022-08-26T01:51:26.222Z,24.30
2022-08-26T01:53:53.906Z,22.60
2022-08-26T01:56:23.591Z,23.10
2022-08-26T01:59:04.032Z,22.10
2022-08-26T02:01:31.359Z,22.50
2022-08-26T02:04:16.951Z,22.60
2022-08-26T02:06:45.167Z,22.50
2022-08-26T02:09:13.221Z,22.50
2022-08-26T02:11:42.261Z,22.60
2022-08-26T02:14:17.430Z,22.10
2022-08-26T02:16:50.249Z,22.60
2022-08-26T02:19:30.517Z,22.50
2022-08-26T02:22:04.523Z,22.40
2022-08-26T02:24:55.830Z,22.50
2022-08-26T02:27:32.825Z,22.40
2022-08-26T02:30:23.461Z,22.40
2022-08-26T02:32:51.842Z,22.30
2022-08-26T02:35:22.327Z,22.30
2022-08-26T02:37:51.950Z,22.30
2022-08-26T02:40:26.933Z,21.10
2022-08-26T02:42:56.098Z,23.20
2022-08-26T02:45:26.443Z,22.30
2022-08-26T02:47:53.943Z,22.20
2022-08-26T02:50:21.293Z,21.80
2022-08-26T02:52:49.684Z,22.20
2022-08-26T02:55:17.733Z,22.90
2022-08-26T02:57:44.745Z,22.10
2022-08-26T03:00:15.244Z,22.70
2022-08-26T03:02:42.749Z,22.30
2022-08-26T03:05:11.668Z,23.30
2022-08-26T03:07:39.045Z,24.60
2022-08-26T03:10:08.675Z,22.10
2022-08-26T03:12:36.292Z,22.00
2022-08-26T03:15:16.429Z,21.50
2022-08-26T03:17:48.042Z,22.00
2022-08-26T03:20:17.362Z,21.70
2022-08-26T03:22:45.073Z,22.70
2022-08-26T03:25:16.426Z,21.90
2022-08-26T03:27:44.022Z,21.80
2022-08-26T03:30:32.582Z,21.80
2022-08-26T03:33:00.874Z,21.80
2022-08-26T03:35:27.958Z,21.90
2022-08-26T03:37:55.499Z,23.40
2022-08-26T03:40:22.903Z,21.60
2022-08-26T03:42:50.810Z,20.90
2022-08-26T03:45:19.729Z,22.20
2022-08-26T03:47:48.039Z,21.70
2022-08-26T03:50:22.830Z,21.80
2022-08-26T03:52:52.826Z,23.10
2022-08-26T03:55:23.769Z,21.30
2022-08-26T03:57:52.150Z,21.70
2022-08-26T04:00:20.792Z,21.60
2022-08-26T04:02:51.215Z,21.70
2022-08-26T04:05:22.758Z,21.60
2022-08-26T04:07:51.242Z,22.90
2022-08-26T04:10:28.681Z,21.60
2022-08-26T04:12:58.860Z,21.60
2022-08-26T04:15:32.909Z,21.50
2022-08-26T04:18:00.872Z,21.50
2022-08-26T04:20:28.484Z,21.40
2022-08-26T04:22:55.506Z,21.50
2022-08-26T04:25:22.595Z,21.40
2022-08-26T04:27:51.541Z,21.40
2022-08-26T04:30:20.009Z,21.30
2022-08-26T04:32:47.035Z,21.50
2022-08-26T04:35:14.434Z,21.50
2022-08-26T04:37:43.099Z,21.40
2022-08-26T04:40:11.336Z,21.50
2022-08-26T04:42:38.384Z,21.90
2022-08-26T04:45:10.260Z,20.90
2022-08-26T04:47:37.765Z,19.10
2022-08-26T04:50:06.937Z,21.30
2022-08-26T04:52:36.237Z,21.20
2022-08-26T04:55:06.695Z,21.30
2022-08-26T04:57:35.903Z,21.40
2022-08-26T05:00:06.899Z,21.30
2022-08-26T05:02:34.272Z,21.40
2022-08-26T05:05:01.378Z,21.40
2022-08-26T05:07:28.581Z,21.40
2022-08-26T05:09:55.626Z,21.20
2022-08-26T05:12:23.306Z,21.20
2022-08-26T05:14:50.285Z,21.30
2022-08-26T05:17:18.925Z,21.20
2022-08-26T05:19:46.000Z,21.30
2022-08-26T05:22:14.117Z,20.80
2022-08-26T05:24:42.165Z,21.20
2022-08-26T05:27:11.671Z,21.10
2022-08-26T05:29:39.894Z,22.20
2022-08-26T05:32:07.540Z,21.20
2022-08-26T05:34:34.534Z,21.10
2022-08-26T05:37:01.965Z,21.60
2022-08-26T05:39:29.392Z,21.10
2022-08-26T05:41:56.405Z,21.20
2022-08-26T05:44:23.874Z,21.10
2022-08-26T05:46:51.821Z,21.10
2022-08-26T05:49:18.977Z,21.20
2022-08-26T05:51:47.939Z,21.20
2022-08-26T05:54:21.795Z,20.60
2022-08-26T05:56:50.949Z,21.30
2022-08-26T05:59:24.374Z,21.20
2022-08-26T06:01:54.642Z,21.00
2022-08-26T06:04:23.348Z,21.00
2022-08-26T06:06:53.894Z,21.10
2022-08-26T06:09:20.926Z,20.90
2022-08-26T06:11:48.636Z,20.80
2022-08-26T06:14:17.237Z,21.70
2022-08-26T06:16:45.608Z,20.40
2022-08-26T06:19:15.606Z,20.30
2022-08-26T06:21:46.486Z,20.20
2022-08-26T06:24:33.523Z,20.80
2022-08-26T06:27:09.571Z,20.60
2022-08-26T06:29:38.606Z,20.90
2022-08-26T06:32:06.908Z,20.80
2022-08-26T06:34:35.876Z,20.80
2022-08-26T06:37:03.683Z,21.10
2022-08-26T06:39:31.943Z,21.00
2022-08-26T06:42:00.596Z,21.10
2022-08-26T06:44:28.048Z,21.00
2022-08-26T06:46:55.318Z,21.90
2022-08-26T06:49:27.263Z,20.90
2022-08-26T06:51:58.404Z,20.60
2022-08-26T06:54:27.323Z,20.70
2022-08-26T06:56:56.936Z,20.30
2022-08-26T06:59:24.710Z,20.90
2022-08-26T07:01:52.415Z,22.20
2022-08-26T07:04:22.297Z,21.10
2022-08-26T07:06:52.411Z,20.90
2022-08-26T07:09:22.960Z,21.10
2022-08-26T07:11:51.423Z,21.50
2022-08-26T07:14:21.626Z,21.10
2022-08-26T07:16:50.597Z,21.10
2022-08-26T07:19:29.981Z,21.00
2022-08-26T07:22:02.106Z,21.20
2022-08-26T07:24:31.166Z,21.10
2022-08-26T07:27:06.166Z,21.20
2022-08-26T07:29:35.265Z,21.10
2022-08-26T07:32:03.403Z,21.30
2022-08-26T07:34:32.315Z,21.20
2022-08-26T07:37:01.296Z,21.20
2022-08-26T07:39:32.903Z,21.30
2022-08-26T07:42:07.796Z,23.30
2022-08-26T07:44:44.200Z,21.60
2022-08-26T07:47:25.899Z,21.60
2022-08-26T07:49:57.811Z,21.90
2022-08-26T07:52:27.551Z,21.80
2022-08-26T07:54:58.374Z,21.90
2022-08-26T07:57:27.159Z,21.40
2022-08-26T07:59:56.104Z,22.00
2022-08-26T08:02:25.834Z,22.10
2022-08-26T08:04:58.329Z,22.10
2022-08-26T08:07:44.380Z,21.40
2022-08-26T08:10:21.055Z,22.10
2022-08-26T08:12:49.371Z,22.30
2022-08-26T08:15:21.773Z,22.70
2022-08-26T08:17:50.519Z,23.00
2022-08-26T08:20:19.663Z,22.40
2022-08-26T08:22:47.637Z,22.40
2022-08-26T08:25:15.125Z,22.20
2022-08-26T08:27:48.595Z,22.10
2022-08-26T08:30:22.751Z,22.10
2022-08-26T08:32:51.098Z,21.80
2022-08-26T08:35:23.371Z,21.80
2022-08-26T08:37:54.397Z,20.70
2022-08-26T08:40:25.980Z,22.90
2022-08-26T08:43:07.909Z,22.90
2022-08-26T08:45:43.132Z,22.30
2022-08-26T08:48:27.910Z,22.80
2022-08-26T08:51:30.543Z,22.80
2022-08-26T08:54:00.338Z,22.50
2022-08-26T08:56:47.104Z,21.90
2022-08-26T08:59:25.518Z,22.40
2022-08-26T09:02:02.299Z,22.40
2022-08-26T09:05:00.830Z,23.10
2022-08-26T09:08:11.358Z,23.10
2022-08-26T09:10:48.484Z,23.10
2022-08-26T09:13:25.332Z,23.90
2022-08-26T09:16:26.257Z,24.40
2022-08-26T09:19:11.275Z,24.40
2022-08-26T09:21:38.754Z,22.80
2022-08-26T09:24:06.650Z,22.80
2022-08-26T09:26:39.561Z,22.50
2022-08-26T09:32:24.186Z,22.80
2022-08-26T09:35:02.160Z,22.90
2022-08-26T09:37:43.476Z,23.40
2022-08-26T09:40:29.137Z,23.00
2022-08-26T09:43:22.513Z,22.50
2022-08-26T09:45:59.313Z,22.90
2022-08-26T09:48:35.484Z,22.60
2022-08-26T09:51:24.192Z,22.80
2022-08-26T09:53:58.526Z,22.80
2022-08-26T09:56:33.545Z,22.70
2022-08-26T09:59:02.142Z,23.50
2022-08-26T10:01:38.373Z,23.40
2022-08-26T10:04:10.908Z,23.20
2022-08-26T10:06:54.668Z,23.60
2022-08-26T10:09:23.906Z,24.00
2022-08-26T10:11:54.206Z,23.90
2022-08-26T10:14:39.377Z,22.20
2022-08-26T10:17:35.725Z,25.40
2022-08-26T10:20:23.269Z,22.20
2022-08-26T10:23:14.866Z,22.30
2022-08-26T10:25:53.860Z,22.20
2022-08-26T10:28:47.333Z,22.70
2022-08-26T10:31:38.205Z,22.40
2022-08-26T10:34:08.910Z,22.20
2022-08-26T10:37:13.622Z,21.30
2022-08-26T10:40:08.105Z,22.10
2022-08-26T10:42:58.577Z,22.40
2022-08-26T10:45:33.190Z,22.70
2022-08-26T10:50:37.890Z,22.60
2022-08-26T10:53:24.975Z,22.70
2022-08-26T10:56:37.742Z,22.60
2022-08-26T10:59:24.441Z,23.00
2022-08-26T11:02:25.895Z,22.80
2022-08-26T11:05:04.449Z,23.20
2022-08-26T11:07:40.409Z,22.70
2022-08-26T11:10:19.073Z,23.20
2022-08-26T11:12:53.753Z,22.70
2022-08-26T11:17:51.864Z,23.00
2022-08-26T11:20:41.753Z,22.90
2022-08-26T11:23:23.990Z,22.10
2022-08-26T11:25:57.207Z,23.40
2022-08-26T11:28:47.828Z,22.70
2022-08-26T11:31:27.095Z,23.60
2022-08-26T11:34:02.894Z,24.00
2022-08-26T11:36:29.830Z,24.80
2022-08-26T11:38:58.726Z,24.60
2022-08-26T11:41:29.747Z,24.20
2022-08-26T11:43:59.671Z,25.20
2022-08-26T11:46:35.718Z,24.00
2022-08-26T11:49:06.860Z,24.90
2022-08-26T11:51:40.357Z,24.90
2022-08-26T11:54:35.480Z,25.00
2022-08-26T11:57:09.493Z,24.60
2022-08-26T11:59:40.575Z,24.10
2022-08-26T12:02:17.929Z,24.10
2022-08-26T12:04:49.696Z,24.60
2022-08-26T12:07:23.964Z,24.50
2022-08-26T12:10:02.207Z,24.90
2022-08-26T12:12:36.137Z,25.00
2022-08-26T12:15:19.955Z,24.30
2022-08-26T12:17:53.412Z,24.90
2022-08-26T12:20:54.267Z,25.00
2022-08-26T12:23:45.208Z,24.50
2022-08-26T12:26:20.855Z,24.50
2022-08-26T12:29:02.380Z,24.60
2022-08-26T12:31:47.853Z,23.90
2022-08-26T12:34:17.588Z,23.70
2022-08-26T12:36:53.043Z,23.80
2022-08-26T12:39:38.347Z,24.40
2022-08-26T12:42:41.302Z,24.60
2022-08-26T12:45:09.512Z,25.20
2022-08-26T12:47:44.201Z,24.70
2022-08-26T12:50:35.038Z,24.80
2022-08-26T12:53:07.046Z,24.90
2022-08-26T12:55:50.745Z,25.40
2022-08-26T12:58:39.004Z,24.50
2022-08-26T13:01:08.822Z,24.50
2022-08-26T13:03:38.612Z,23.90
2022-08-26T13:06:27.832Z,24.90
2022-08-26T13:09:23.963Z,23.70
2022-08-26T13:11:53.134Z,24.50
2022-08-26T13:14:24.224Z,24.60
2022-08-26T13:16:52.473Z,25.00
2022-08-26T13:19:23.615Z,24.70
2022-08-26T13:21:56.747Z,24.40
2022-08-26T13:24:33.746Z,24.90
2022-08-26T13:27:02.543Z,24.70
2022-08-26T13:29:29.592Z,24.50
2022-08-26T13:31:58.775Z,25.20
2022-08-26T13:34:26.135Z,24.70
2022-08-26T13:36:55.232Z,24.10
2022-08-26T13:39:23.777Z,25.20
2022-08-26T13:41:51.590Z,24.80
2022-08-26T13:44:19.352Z,24.80
2022-08-26T13:46:46.396Z,24.90
2022-08-26T13:49:13.600Z,24.90
2022-08-26T13:51:41.724Z,25.10
2022-08-26T13:56:37.605Z,25.40
2022-08-26T13:59:05.733Z,25.90
2022-08-26T14:01:34.923Z,26.80
2022-08-26T14:04:03.063Z,25.40
2022-08-26T14:06:30.302Z,25.60
2022-08-26T14:08:57.531Z,25.30
2022-08-26T14:11:25.078Z,25.30
2022-08-26T14:13:52.485Z,25.40
2022-08-26T14:16:37.171Z,25.70
2022-08-26T14:19:24.326Z,25.90
2022-08-26T14:21:51.577Z,25.50
2022-08-26T14:24:19.076Z,25.60
2022-08-26T14:26:48.501Z,25.70
2022-08-26T14:29:16.861Z,25.30
2022-08-26T14:31:44.737Z,25.70
2022-08-26T14:34:14.165Z,25.60
2022-08-26T14:36:41.300Z,24.70
2022-08-26T14:39:12.274Z,25.80
2022-08-26T14:41:53.841Z,25.70
2022-08-26T14:44:27.042Z,25.50
2022-08-26T14:46:56.125Z,24.50
2022-08-26T14:49:25.369Z,25.00
2022-08-26T14:51:52.385Z,25.70
2022-08-26T14:54:21.204Z,25.80
2022-08-26T14:56:54.110Z,25.80
2022-08-26T14:59:34.235Z,26.00
2022-08-26T15:02:01.834Z,26.60
2022-08-26T15:04:29.248Z,26.10
2022-08-26T15:06:58.762Z,26.20
2022-08-26T15:09:29.625Z,27.00
2022-08-26T15:11:57.322Z,26.20
2022-08-26T15:14:26.032Z,26.30
2022-08-26T15:16:56.860Z,26.20
2022-08-26T15:19:26.138Z,25.60
2022-08-26T15:21:53.600Z,26.00
2022-08-26T15:24:24.820Z,27.20
2022-08-26T15:26:53.068Z,25.90
2022-08-26T15:29:20.394Z,26.00
2022-08-26T15:31:47.798Z,25.80
2022-08-26T15:34:16.934Z,25.80
2022-08-26T15:36:47.064Z,26.00
2022-08-26T15:39:16.540Z,25.80
2022-08-26T15:41:43.795Z,25.80
2022-08-26T15:44:11.923Z,25.60
2022-08-26T15:46:40.133Z,25.90
2022-08-26T15:49:07.290Z,25.50
2022-08-26T15:51:45.259Z,25.30
2022-08-26T15:54:14.254Z,25.30
2022-08-26T15:56:41.541Z,26.40
2022-08-26T15:59:11.829Z,25.40
2022-08-26T16:01:39.658Z,24.60
2022-08-26T16:06:37.856Z,25.30
2022-08-26T16:09:06.611Z,25.10
2022-08-26T16:11:35.277Z,26.20
2022-08-26T16:14:04.490Z,25.20
2022-08-26T16:16:32.173Z,25.10
2022-08-26T16:19:06.858Z,25.60
2022-08-26T16:21:35.160Z,25.20
2022-08-26T16:24:03.363Z,26.80
2022-08-26T16:26:36.589Z,25.30
2022-08-26T16:29:08.101Z,25.30
2022-08-26T16:31:38.289Z,24.70
2022-08-26T16:34:07.092Z,25.30
2022-08-26T16:36:36.499Z,25.00
2022-08-26T16:39:05.945Z,24.40
2022-08-26T16:41:33.181Z,23.70
2022-08-26T16:44:00.901Z,24.10
2022-08-26T16:46:29.240Z,24.80
2022-08-26T16:48:58.715Z,23.70
2022-08-26T16:51:28.083Z,23.50
2022-08-26T16:53:56.924Z,23.70
2022-08-26T16:56:30.595Z,23.20
2022-08-26T16:59:06.079Z,21.00
2022-08-26T17:01:33.258Z,22.00
2022-08-26T17:04:00.356Z,21.40
2022-08-26T17:08:55.048Z,19.80
2022-08-26T17:11:22.050Z,19.80
2022-08-26T17:13:49.141Z,19.60
2022-08-26T17:16:16.406Z,19.90
2022-08-26T17:18:43.551Z,20.00
2022-08-26T17:21:12.960Z,19.70
2022-08-26T17:23:41.903Z,20.30
2022-08-26T17:26:10.711Z,20.00
2022-08-26T17:28:38.416Z,19.70
2022-08-26T17:31:06.935Z,19.90
2022-08-26T17:33:34.269Z,20.90
2022-08-26T17:36:01.462Z,21.20
2022-08-26T17:38:29.216Z,22.00
2022-08-26T17:40:57.581Z,22.00
2022-08-26T17:43:26.813Z,22.10
2022-08-26T17:46:06.986Z,21.90
2022-08-26T17:48:36.662Z,22.30
2022-08-26T17:51:13.973Z,22.60
2022-08-26T17:53:42.426Z,22.20
2022-08-26T17:56:12.585Z,22.30
2022-08-26T17:58:40.750Z,22.50
2022-08-26T18:01:15.234Z,22.50
2022-08-26T18:03:42.406Z,22.90
2022-08-26T18:06:12.213Z,23.00
2022-08-26T18:08:41.293Z,22.90
2022-08-26T18:11:15.888Z,22.90
2022-08-26T18:13:47.035Z,22.80
2022-08-26T18:16:17.973Z,22.50
2022-08-26T18:18:47.232Z,22.50
2022-08-26T18:21:19.095Z,22.70
2022-08-26T18:23:47.374Z,22.70
2022-08-26T18:29:19.362Z,22.50
2022-08-26T18:31:46.640Z,22.60
2022-08-26T18:34:15.510Z,22.50
2022-08-26T18:36:43.816Z,22.50
2022-08-26T18:39:12.570Z,22.50
2022-08-26T18:41:47.066Z,22.50
2022-08-26T18:44:16.577Z,22.60
2022-08-26T18:46:45.741Z,22.70
2022-08-26T18:49:15.423Z,22.20
2022-08-26T18:51:44.066Z,22.60
2022-08-26T18:54:11.974Z,22.60
2022-08-26T18:56:40.395Z,22.30
2022-08-26T18:59:08.962Z,22.60
2022-08-26T19:01:40.755Z,22.60
2022-08-26T19:04:15.489Z,22.30
2022-08-26T19:06:46.324Z,22.50
2022-08-26T19:09:14.617Z,22.90
2022-08-26T19:11:43.195Z,22.40
2022-08-26T19:14:14.680Z,22.40
2022-08-26T19:16:46.036Z,22.70
2022-08-26T19:19:14.954Z,21.80
2022-08-26T19:21:42.595Z,22.00
2022-08-26T19:24:17.308Z,22.00
2022-08-26T19:26:51.343Z,21.90
2022-08-26T19:29:29.206Z,21.40
2022-08-26T19:31:56.587Z,21.70
2022-08-26T19:34:24.202Z,21.80
2022-08-26T19:39:21.533Z,22.10
2022-08-26T19:41:48.978Z,22.10
2022-08-26T19:44:39.718Z,22.10
2022-08-26T19:47:09.585Z,21.80
2022-08-26T19:49:38.490Z,22.10
2022-08-26T19:52:06.144Z,22.00
2022-08-26T19:54:33.834Z,22.00
2022-08-26T19:57:00.839Z,21.80
2022-08-26T19:59:29.046Z,21.80
2022-08-26T20:02:01.134Z,21.70
2022-08-26T20:04:31.179Z,21.50
2022-08-26T20:07:00.877Z,21.40
2022-08-26T20:09:33.956Z,21.60
2022-08-26T20:12:02.789Z,21.80
2022-08-26T20:14:30.016Z,22.30
2022-08-26T20:16:57.291Z,22.30
2022-08-26T20:19:43.205Z,21.80
2022-08-26T20:22:11.505Z,21.50
2022-08-26T20:24:39.121Z,21.30
2022-08-26T20:27:07.924Z,22.00
2022-08-26T20:29:36.923Z,21.70
2022-08-26T20:32:06.165Z,21.50
2022-08-26T20:34:33.644Z,21.50
2022-08-26T20:37:01.079Z,21.70
2022-08-26T20:39:31.386Z,23.00
2022-08-26T20:41:59.203Z,21.70
2022-08-26T20:44:26.459Z,22.00
2022-08-26T20:46:53.665Z,20.90
2022-08-26T20:49:20.841Z,21.30
2022-08-26T20:51:52.114Z,21.70
2022-08-26T20:54:26.231Z,21.50
2022-08-26T20:56:57.384Z,21.70
2022-08-26T20:59:25.752Z,21.50
2022-08-26T21:01:53.154Z,22.20
2022-08-26T21:04:23.756Z,22.00
2022-08-26T21:06:52.911Z,21.60
2022-08-26T21:09:25.257Z,22.20
2022-08-26T21:11:54.784Z,21.40
2022-08-26T21:14:25.962Z,21.50
2022-08-26T21:16:53.534Z,21.30
2022-08-26T21:19:20.629Z,22.00
2022-08-26T21:21:49.172Z,21.50
2022-08-26T21:24:16.884Z,21.40
2022-08-26T21:26:44.420Z,21.40
2022-08-26T21:29:13.519Z,21.30
2022-08-26T21:31:45.993Z,21.20
2022-08-26T21:34:17.313Z,21.70
2022-08-26T21:36:46.657Z,21.30
2022-08-26T21:39:14.724Z,21.40
2022-08-26T21:41:43.543Z,21.20
2022-08-26T21:44:12.754Z,22.10
2022-08-26T21:46:40.228Z,21.20
2022-08-26T21:49:13.611Z,21.10
2022-08-26T21:51:45.906Z,21.20
2022-08-26T21:54:13.489Z,21.20
2022-08-26T21:56:46.477Z,21.20
2022-08-26T21:59:16.787Z,21.30
2022-08-26T22:01:43.975Z,20.90
2022-08-26T22:04:11.051Z,21.10
2022-08-26T22:06:49.026Z,20.30
2022-08-26T22:09:20.736Z,20.30
2022-08-26T22:11:48.415Z,20.10
2022-08-26T22:14:17.396Z,21.00
2022-08-26T22:16:50.306Z,20.60
2022-08-26T22:19:19.910Z,21.00
2022-08-26T22:21:50.015Z,21.10
2022-08-26T22:24:20.966Z,23.50
2022-08-26T22:26:48.980Z,21.50
2022-08-26T22:29:17.089Z,22.70
2022-08-26T22:31:45.692Z,20.40
2022-08-26T22:34:17.115Z,21.00
2022-08-26T22:36:47.157Z,20.60
2022-08-26T22:39:18.629Z,22.00
2022-08-26T22:41:46.600Z,20.90
2022-08-26T22:44:13.617Z,20.50
2022-08-26T22:46:41.970Z,20.90
2022-08-26T22:49:12.447Z,20.90
2022-08-26T22:51:39.599Z,20.80
2022-08-26T22:54:06.668Z,20.70
2022-08-26T22:56:34.670Z,20.80
2022-08-26T22:59:01.804Z,20.70
2022-08-26T23:01:28.888Z,20.80
2022-08-26T23:03:55.916Z,20.80
2022-08-26T23:06:23.073Z,21.00
2022-08-26T23:08:50.159Z,20.70
2022-08-26T23:11:17.388Z,20.70
2022-08-26T23:13:44.356Z,20.20
2022-08-26T23:16:13.330Z,20.80
2022-08-26T23:18:41.437Z,20.40
2022-08-26T23:21:09.238Z,21.10
2022-08-26T23:23:37.359Z,20.70
2022-08-26T23:26:07.001Z,21.90
2022-08-26T23:28:38.345Z,20.70
2022-08-26T23:31:06.489Z,19.10
2022-08-26T23:33:52.356Z,20.70
2022-08-26T23:36:22.980Z,20.70
2022-08-26T23:38:52.693Z,23.30
2022-08-26T23:41:22.300Z,20.80
2022-08-26T23:43:51.529Z,20.60
2022-08-26T23:46:19.374Z,20.70
2022-08-26T23:48:46.926Z,22.50
2022-08-26T23:51:32.988Z,20.60
2022-08-26T23:54:00.236Z,20.50
2022-08-26T23:56:27.585Z,20.30
2022-08-26T23:58:56.590Z,20.70
